Time;durP1;ratioP1;P1;durP2;ratioP2;P2;SDS_P1;SDS_P2;PMS_P1;PMS_P2;Temp;Humidity;BMP_temperature;BMP_pressure;BME280_temperature;BME280_humidity;BME280_pressure;Samples;Min_cycle;Max_cycle;Signal;HPM_P1;HPM_P2
2022/06/07 00:01:18;;;;;;;;;;;;;;;;;;4999536;28;19909;-26
2022/06/07 00:03:44;;;;;;;;;;;;;;;;;;4998377;28;19969;-26
2022/06/07 00:06:10;;;;;;;;;;;;;;;;;;4999421;28;19932;-26
2022/06/07 00:08:36;;;;;;;;;;;;;;;;;;4999295;28;19925;-26
2022/06/07 00:11:02;;;;;;;;;;;;;;;;;;4999279;28;19909;-26
2022/06/07 00:13:28;;;;;;;;;;;;;;;;;;4999198;28;19980;-26
2022/06/07 00:15:54;;;;;;;;;;;;;;;;;;4999508;28;19926;-26
2022/06/07 00:18:20;;;;;;;;;;;;;;;;;;4999179;28;19913;-25
2022/06/07 00:20:46;;;;;;;;;;;;;;;;;;4999179;28;19910;-26
2022/06/07 00:23:12;;;;;;;;;;;;;;;;;;4999588;28;19921;-26
2022/06/07 00:25:38;;;;;;;;;;;;;;;;;;5000171;28;19937;-26
2022/06/07 00:28:04;;;;;;;;;;;;;;;;;;4998381;28;20321;-25
2022/06/07 00:30:30;;;;;;;;;;;;;;;;;;4999521;28;19921;-25
2022/06/07 00:32:56;;;;;;;;;;;;;;;;;;4998858;28;19956;-25
2022/06/07 00:35:22;;;;;;;;;;;;;;;;;;4999395;28;20413;-26
2022/06/07 00:37:48;;;;;;;;;;;;;;;;;;4998836;28;19932;-27
2022/06/07 00:40:14;;;;;;;;;;;;;;;;;;4998872;28;19909;-26
2022/06/07 00:42:41;;;;;;;;;;;;;;;;;;4998736;28;19972;-26
2022/06/07 00:45:07;;;;;;;;;;;;;;;;;;4998706;28;19910;-26
2022/06/07 00:47:33;;;;;;;;;;;;;;;;;;4998956;28;19914;-26
2022/06/07 00:49:59;;;;;;;;;;;;;;;;;;4999213;28;20025;-26
2022/06/07 00:52:25;;;;;;;;;;;;;;;;;;4998767;28;19915;-26
2022/06/07 00:54:51;;;;;;;;;;;;;;;;;;4998556;28;20252;-26
2022/06/07 00:57:17;;;;;;;;;;;;;;;;;;4998579;28;20256;-26
2022/06/07 00:59:43;;;;;;;;;;;;;;;;;;4998347;28;19914;-26
2022/06/07 01:02:09;;;;;;;;;;;;;;;;;;4998182;28;19925;-26
2022/06/07 01:04:35;;;;;;;;;;;;;;;;;;4997060;28;19976;-26
2022/06/07 01:12:32;;;;;;;;;;;;;;;;;;4998188;28;19925;-26
2022/06/07 01:14:58;;;;;;;;;;;;;;;;;;4998371;28;19914;-26
2022/06/07 01:17:24;;;;;;;;;;;;;;;;;;4998334;28;19945;-26
2022/06/07 01:19:50;;;;;;;;;;;;;;;;;;4998103;28;20356;-26
2022/06/07 01:22:16;;;;;;;;;;;;;;;;;;4998032;28;19921;-26
2022/06/07 01:24:42;;;;;;;;;;;;;;;;;;4998035;28;19918;-26
2022/06/07 01:27:08;;;;;;;;;;;;;;;;;;4997956;28;19964;-27
2022/06/07 01:29:34;;;;;;;;;;;;;;;;;;4998466;28;19954;-26
2022/06/07 01:32:00;;;;;;;;;;;;;;;;;;4998014;28;19960;-26
2022/06/07 01:34:26;;;;;;;;;;;;;;;;;;4997759;28;20353;-26
2022/06/07 01:36:52;;;;;;;;;;;;;;;;;;4997792;28;20250;-26
2022/06/07 01:42:03;;;;;;;;;;;;;;;;;;4997929;28;19972;-26
2022/06/07 01:44:29;;;;;;;;;;;;;;;;;;4997673;28;19920;-26
2022/06/07 01:46:55;;;;;;;;;;;;;;;;;;4998151;28;19914;-26
2022/06/07 01:49:23;;;;;;;;;;;;;;;;;;4997535;28;19929;-26
2022/06/07 01:51:49;;;;;;;;;;;;;;;;;;4997474;28;20060;-26
2022/06/07 01:54:16;;;;;;;;;;;;;;;;;;4997985;28;20241;-26
2022/06/07 01:56:41;;;;;;;;;;;;;;;;;;4997276;28;19921;-26
2022/06/07 01:59:07;;;;;;;;;;;;;;;;;;4997358;28;20356;-27
2022/06/07 02:01:33;;;;;;;;;;;;;;;;;;4997331;28;19964;-26
2022/06/07 02:03:59;;;;;;;;;;;;;;;;;;4996981;28;19980;-26
2022/06/07 02:06:25;;;;;;;;;;;;;;;;;;4997757;28;19910;-26
2022/06/07 02:08:51;;;;;;;;;;;;;;;;;;4997148;28;19918;-26
2022/06/07 02:11:17;;;;;;;;;;;;;;;;;;4997162;28;19917;-27
2022/06/07 02:13:43;;;;;;;;;;;;;;;;;;4997306;28;19918;-26
2022/06/07 02:16:09;;;;;;;;;;;;;;;;;;4996188;28;19952;-27
2022/06/07 02:18:35;;;;;;;;;;;;;;;;;;4996967;28;19914;-26
2022/06/07 02:21:01;;;;;;;;;;;;;;;;;;4996914;28;19921;-26
2022/06/07 02:23:27;;;;;;;;;;;;;;;;;;4996941;28;19921;-26
2022/06/07 02:25:53;;;;;;;;;;;;;;;;;;4996914;28;20230;-26
2022/06/07 02:28:19;;;;;;;;;;;;;;;;;;4996790;28;19913;-26
2022/06/07 02:30:45;;;;;;;;;;;;;;;;;;4996765;28;19913;-26
2022/06/07 02:33:11;;;;;;;;;;;;;;;;;;4996645;28;19956;-26
2022/06/07 02:35:39;;;;;;;;;;;;;;;;;;4996640;28;19968;-26
2022/06/07 02:38:05;;;;;;;;;;;;;;;;;;4996875;28;20229;-26
2022/06/07 02:40:31;;;;;;;;;;;;;;;;;;4996606;28;19910;-26
2022/06/07 02:42:57;;;;;;;;;;;;;;;;;;4996424;28;19921;-26
2022/06/07 02:45:23;;;;;;;;;;;;;;;;;;4996489;28;20273;-26
2022/06/07 02:47:49;;;;;;;;;;;;;;;;;;4996751;28;20325;-26
2022/06/07 02:50:15;;;;;;;;;;;;;;;;;;4996639;28;19914;-27
2022/06/07 02:52:41;;;;;;;;;;;;;;;;;;4996293;28;20484;-26
2022/06/07 02:55:07;;;;;;;;;;;;;;;;;;4996303;28;19918;-27
2022/06/07 02:57:33;;;;;;;;;;;;;;;;;;4996265;28;19956;-26
2022/06/07 02:59:59;;;;;;;;;;;;;;;;;;4996280;28;19941;-26
2022/06/07 03:02:26;;;;;;;;;;;;;;;;;;4995919;28;19917;-26
2022/06/07 03:04:52;;;;;;;;;;;;;;;;;;4996472;28;20364;-26
2022/06/07 03:07:18;;;;;;;;;;;;;;;;;;4996065;28;20337;-26
2022/06/07 03:09:44;;;;;;;;;;;;;;;;;;4996395;28;19914;-26
2022/06/07 03:12:10;;;;;;;;;;;;;;;;;;4996019;28;19914;-26
2022/06/07 03:14:36;;;;;;;;;;;;;;;;;;4995920;28;19914;-26
2022/06/07 03:17:02;;;;;;;;;;;;;;;;;;4995946;28;20238;-26
2022/06/07 03:19:28;;;;;;;;;;;;;;;;;;4996501;28;19933;-26
2022/06/07 03:21:54;;;;;;;;;;;;;;;;;;4995802;28;19913;-26
2022/06/07 03:24:20;;;;;;;;;;;;;;;;;;4995895;28;19992;-26
2022/06/07 03:26:46;;;;;;;;;;;;;;;;;;4995765;28;19914;-26
2022/06/07 03:29:12;;;;;;;;;;;;;;;;;;4996412;28;20294;-26
2022/06/07 03:31:38;;;;;;;;;;;;;;;;;;4995792;28;20337;-26
2022/06/07 03:34:04;;;;;;;;;;;;;;;;;;4994746;28;19921;-26
2022/06/07 03:36:30;;;;;;;;;;;;;;;;;;4995693;28;20017;-26
2022/06/07 03:38:56;;;;;;;;;;;;;;;;;;4995705;28;20011;-26
2022/06/07 03:41:22;;;;;;;;;;;;;;;;;;4995707;28;19922;-26
2022/06/07 03:43:48;;;;;;;;;;;;;;;;;;4995555;28;19920;-26
2022/06/07 03:46:14;;;;;;;;;;;;;;;;;;4995638;28;19914;-26
2022/06/07 03:48:40;;;;;;;;;;;;;;;;;;4995614;28;19921;-26
2022/06/07 03:51:06;;;;;;;;;;;;;;;;;;4995843;28;20222;-26
2022/06/07 03:53:32;;;;;;;;;;;;;;;;;;4995487;28;19913;-26
2022/06/07 03:55:58;;;;;;;;;;;;;;;;;;4995769;28;19925;-26
2022/06/07 03:58:24;;;;;;;;;;;;;;;;;;4995794;28;20284;-26
2022/06/07 04:00:50;;;;;;;;;;;;;;;;;;4995823;28;19953;-26
2022/06/07 04:03:16;;;;;;;;;;;;;;;;;;4995365;28;19922;-26
2022/06/07 04:05:42;;;;;;;;;;;;;;;;;;4996073;28;19924;-26
2022/06/07 04:08:11;;;;;;;;;;;;;;;;;;4995908;28;19913;-26
2022/06/07 04:10:37;;;;;;;;;;;;;;;;;;4995208;28;19909;-26
2022/06/07 04:13:03;;;;;;;;;;;;;;;;;;4995346;28;19913;-26
2022/06/07 04:15:29;;;;;;;;;;;;;;;;;;4995763;28;19914;-26
2022/06/07 04:17:55;;;;;;;;;;;;;;;;;;4995241;28;19917;-26
2022/06/07 04:20:21;;;;;;;;;;;;;;;;;;4995658;28;19961;-26
2022/06/07 04:22:47;;;;;;;;;;;;;;;;;;4995854;28;19914;-27
2022/06/07 04:25:13;;;;;;;;;;;;;;;;;;4995214;28;19980;-27
2022/06/07 04:27:39;;;;;;;;;;;;;;;;;;4995449;28;19914;-27
2022/06/07 04:30:05;;;;;;;;;;;;;;;;;;4995453;28;19916;-27
2022/06/07 04:32:32;;;;;;;;;;;;;;;;;;4995121;28;19918;-27
2022/06/07 04:34:58;;;;;;;;;;;;;;;;;;4995337;28;20004;-27
2022/06/07 04:37:23;;;;;;;;;;;;;;;;;;4995132;28;20297;-27
2022/06/07 04:39:49;;;;;;;;;;;;;;;;;;4997462;28;20252;-27
2022/06/07 04:42:15;;;;;;;;;;;;;;;;;;4998849;28;19956;-27
2022/06/07 04:44:41;;;;;;;;;;;;;;;;;;4998797;28;19925;-27
2022/06/07 04:47:07;;;;;;;;;;;;;;;;;;4999135;28;19925;-27
2022/06/07 04:49:33;;;;;;;;;;;;;;;;;;4998456;28;19910;-27
2022/06/07 04:51:59;;;;;;;;;;;;;;;;;;4998560;28;20240;-27
2022/06/07 04:54:25;;;;;;;;;;;;;;;;;;4998660;28;20357;-27
2022/06/07 04:56:51;;;;;;;;;;;;;;;;;;4998444;28;19980;-27
2022/06/07 04:59:17;;;;;;;;;;;;;;;;;;4998903;28;19960;-27
2022/06/07 05:01:43;;;;;;;;;;;;;;;;;;4998194;28;19940;-27
2022/06/07 05:04:09;;;;;;;;;;;;;;;;;;4998125;28;19933;-27
2022/06/07 05:06:35;;;;;;;;;;;;;;;;;;4998185;28;19964;-26
2022/06/07 05:09:01;;;;;;;;;;;;;;;;;;4998195;28;19921;-27
2022/06/07 05:11:27;;;;;;;;;;;;;;;;;;4997988;28;19913;-27
2022/06/07 05:13:54;;;;;;;;;;;;;;;;;;4998090;28;19916;-27
2022/06/07 05:16:20;;;;;;;;;;;;;;;;;;4998614;28;19949;-27
2022/06/07 05:18:46;;;;;;;;;;;;;;;;;;4997822;28;19937;-27
2022/06/07 05:21:13;;;;;;;;;;;;;;;;;;4998248;28;20313;-27
2022/06/07 05:23:39;;;;;;;;;;;;;;;;;;4997873;28;19949;-27
2022/06/07 05:26:05;;;;;;;;;;;;;;;;;;4997980;28;20260;-27
2022/06/07 05:28:31;;;;;;;;;;;;;;;;;;4997984;28;19917;-27
2022/06/07 05:30:57;;;;;;;;;;;;;;;;;;4998153;28;19913;-27
2022/06/07 05:33:23;;;;;;;;;;;;;;;;;;4997788;28;19913;-27
2022/06/07 05:35:49;;;;;;;;;;;;;;;;;;4997679;28;19965;-27
2022/06/07 05:38:16;;;;;;;;;;;;;;;;;;4997922;28;19964;-27
2022/06/07 05:40:42;;;;;;;;;;;;;;;;;;4997865;28;19936;-27
2022/06/07 05:43:08;;;;;;;;;;;;;;;;;;4997458;28;19989;-27
2022/06/07 05:45:34;;;;;;;;;;;;;;;;;;4997491;28;19967;-27
2022/06/07 05:48:00;;;;;;;;;;;;;;;;;;4997869;28;20375;-27
2022/06/07 05:50:26;;;;;;;;;;;;;;;;;;4996303;28;19910;-27
2022/06/07 05:52:52;;;;;;;;;;;;;;;;;;4997122;28;19921;-27
2022/06/07 05:55:18;;;;;;;;;;;;;;;;;;4997766;28;19976;-27
2022/06/07 05:57:54;;;;;;;;;;;;;;;;;;4997238;28;19968;-27
2022/06/07 06:00:20;;;;;;;;;;;;;;;;;;4997087;28;20328;-27
2022/06/07 06:02:46;;;;;;;;;;;;;;;;;;4996444;28;19921;-27
2022/06/07 06:05:12;;;;;;;;;;;;;;;;;;4996765;28;19913;-27
2022/06/07 06:10:19;;;;;;;;;;;;;;;;;;4996633;28;19914;-27
2022/06/07 06:10:24;;;;;;;;;;;;;;;;;;4996642;28;20008;-27
2022/06/07 06:12:50;;;;;;;;;;;;;;;;;;4997036;28;19960;-27
2022/06/07 06:15:16;;;;;;;;;;;;;;;;;;4996570;28;20270;-27
2022/06/07 06:17:42;;;;;;;;;;;;;;;;;;4997106;28;20009;-27
2022/06/07 06:20:09;;;;;;;;;;;;;;;;;;4996575;28;19957;-27
2022/06/07 06:22:35;;;;;;;;;;;;;;;;;;4996714;28;20307;-27
2022/06/07 06:25:01;;;;;;;;;;;;;;;;;;4997033;28;19910;-27
2022/06/07 06:27:28;;;;;;;;;;;;;;;;;;4996429;28;19921;-27
2022/06/07 06:29:54;;;;;;;;;;;;;;;;;;4996640;28;20234;-27
2022/06/07 06:32:20;;;;;;;;;;;;;;;;;;4996741;28;19914;-27
2022/06/07 06:34:46;;;;;;;;;;;;;;;;;;4996364;28;19920;-27
2022/06/07 06:37:13;;;;;;;;;;;;;;;;;;4996463;28;20011;-27
2022/06/07 06:39:39;;;;;;;;;;;;;;;;;;4996737;28;19921;-27
2022/06/07 06:42:05;;;;;;;;;;;;;;;;;;4996036;28;19914;-27
2022/06/07 06:44:31;;;;;;;;;;;;;;;;;;4996067;28;19917;-27
2022/06/07 06:46:57;;;;;;;;;;;;;;;;;;4996041;28;19914;-27
2022/06/07 06:49:24;;;;;;;;;;;;;;;;;;4995858;28;19945;-27
2022/06/07 06:51:50;;;;;;;;;;;;;;;;;;4995926;28;19922;-27
2022/06/07 06:54:16;;;;;;;;;;;;;;;;;;4996199;28;19913;-27
2022/06/07 06:56:42;;;;;;;;;;;;;;;;;;4995840;28;19926;-27
2022/06/07 06:59:12;;;;;;;;;;;;;;;;;;4995674;28;19913;-27
2022/06/07 07:01:38;;;;;;;;;;;;;;;;;;4995660;28;19972;-27
2022/06/07 07:04:04;;;;;;;;;;;;;;;;;;4995516;28;19933;-27
2022/06/07 07:06:30;;;;;;;;;;;;;;;;;;4995771;28;19910;-27
2022/06/07 07:08:56;;;;;;;;;;;;;;;;;;4995722;28;20064;-28
2022/06/07 07:11:22;;;;;;;;;;;;;;;;;;4995760;28;20052;-27
2022/06/07 07:13:48;;;;;;;;;;;;;;;;;;4995574;28;19913;-27
2022/06/07 07:16:14;;;;;;;;;;;;;;;;;;4995462;28;19941;-26
2022/06/07 07:18:40;;;;;;;;;;;;;;;;;;4995633;28;19914;-26
2022/06/07 07:21:06;;;;;;;;;;;;;;;;;;4995927;28;19920;-26
2022/06/07 07:23:32;;;;;;;;;;;;;;;;;;4995794;28;20008;-27
2022/06/07 07:25:58;;;;;;;;;;;;;;;;;;4995783;28;20367;-27
2022/06/07 07:28:24;;;;;;;;;;;;;;;;;;4995583;28;19972;-27
2022/06/07 07:30:50;;;;;;;;;;;;;;;;;;4995626;28;20306;-27
2022/06/07 07:33:17;;;;;;;;;;;;;;;;;;4995845;28;19918;-27
2022/06/07 07:35:43;;;;;;;;;;;;;;;;;;4995402;28;19949;-27
2022/06/07 07:38:09;;;;;;;;;;;;;;;;;;4995679;28;19941;-27
2022/06/07 07:40:35;;;;;;;;;;;;;;;;;;4995384;28;19914;-27
2022/06/07 07:43:01;;;;;;;;;;;;;;;;;;4995371;28;20016;-27
2022/06/07 07:45:28;;;;;;;;;;;;;;;;;;4995477;28;19914;-27
2022/06/07 07:47:54;;;;;;;;;;;;;;;;;;4995439;28;19914;-27
2022/06/07 07:50:20;;;;;;;;;;;;;;;;;;4995326;28;19914;-26
2022/06/07 07:52:47;;;;;;;;;;;;;;;;;;4995298;28;19924;-27
2022/06/07 07:55:13;;;;;;;;;;;;;;;;;;4996232;28;19957;-27
2022/06/07 07:57:39;;;;;;;;;;;;;;;;;;4995643;28;19919;-27
2022/06/07 08:00:06;;;;;;;;;;;;;;;;;;4996001;28;20364;-27
2022/06/07 08:02:32;;;;;;;;;;;;;;;;;;4995262;28;20311;-27
2022/06/07 08:04:57;;;;;;;;;;;;;;;;;;4995284;28;19953;-27
2022/06/07 08:07:23;;;;;;;;;;;;;;;;;;4995244;28;19920;-27
2022/06/07 08:09:49;;;;;;;;;;;;;;;;;;4995152;28;19972;-27
2022/06/07 08:12:15;;;;;;;;;;;;;;;;;;4995319;28;19914;-28
2022/06/07 08:14:41;;;;;;;;;;;;;;;;;;4997391;28;20250;-27
2022/06/07 08:17:07;;;;;;;;;;;;;;;;;;4999131;28;19914;-26
2022/06/07 08:19:33;;;;;;;;;;;;;;;;;;4999225;28;19963;-26
2022/06/07 08:21:59;;;;;;;;;;;;;;;;;;4999306;28;19914;-26
2022/06/07 08:24:25;;;;;;;;;;;;;;;;;;4999060;28;19910;-26
2022/06/07 08:26:52;;;;;;;;;;;;;;;;;;4999542;28;19956;-26
2022/06/07 08:29:20;;;;;;;;;;;;;;;;;;4998784;28;19922;-26
2022/06/07 08:31:46;;;;;;;;;;;;;;;;;;4998963;28;20248;-26
2022/06/07 08:39:41;;;;;;;;;;;;;;;;;;4998658;28;19921;-26
2022/06/07 08:42:07;;;;;;;;;;;;;;;;;;4998518;28;19917;-26
2022/06/07 08:44:33;;;;;;;;;;;;;;;;;;4999169;28;19960;-25
2022/06/07 08:46:59;;;;;;;;;;;;;;;;;;4999349;28;20306;-26
2022/06/07 08:49:25;;;;;;;;;;;;;;;;;;4998693;28;19909;-26
2022/06/07 08:51:51;;;;;;;;;;;;;;;;;;4998442;28;20021;-26
2022/06/07 08:54:18;;;;;;;;;;;;;;;;;;4998650;28;19937;-26
2022/06/07 08:56:44;;;;;;;;;;;;;;;;;;4998583;28;19925;-26
2022/06/07 08:59:10;;;;;;;;;;;;;;;;;;4998522;28;19917;-26
2022/06/07 09:01:36;;;;;;;;;;;;;;;;;;4998247;28;20257;-26
2022/06/07 09:04:02;;;;;;;;;;;;;;;;;;4998002;28;19925;-27
2022/06/07 09:06:28;;;;;;;;;;;;;;;;;;4998457;28;19913;-26
2022/06/07 09:08:54;;;;;;;;;;;;;;;;;;4998142;28;19913;-26
2022/06/07 09:14:05;;;;;;;;;;;;;;;;;;4998267;28;19940;-26
2022/06/07 09:16:31;;;;;;;;;;;;;;;;;;4997996;28;20420;-26
2022/06/07 09:18:57;;;;;;;;;;;;;;;;;;4997977;28;19946;-26
2022/06/07 09:21:24;;;;;;;;;;;;;;;;;;4997798;28;19925;-27
2022/06/07 09:23:50;;;;;;;;;;;;;;;;;;4997935;28;19929;-26
2022/06/07 09:26:16;;;;;;;;;;;;;;;;;;4997596;28;19918;-26
2022/06/07 09:28:42;;;;;;;;;;;;;;;;;;4998017;28;19917;-27
2022/06/07 09:31:08;;;;;;;;;;;;;;;;;;4998031;28;20292;-25
2022/06/07 09:33:34;;;;;;;;;;;;;;;;;;4997708;28;19922;-26
2022/06/07 09:36:00;;;;;;;;;;;;;;;;;;4997736;28;19920;-27
2022/06/07 09:38:26;;;;;;;;;;;;;;;;;;4997535;28;19914;-27
2022/06/07 09:40:52;;;;;;;;;;;;;;;;;;4997640;28;19914;-27
2022/06/07 09:43:18;;;;;;;;;;;;;;;;;;4997404;28;19918;-27
2022/06/07 09:45:44;;;;;;;;;;;;;;;;;;4997496;28;19910;-27
2022/06/07 09:48:10;;;;;;;;;;;;;;;;;;4997437;28;20001;-27
2022/06/07 09:50:37;;;;;;;;;;;;;;;;;;4997444;28;19920;-27
2022/06/07 09:53:03;;;;;;;;;;;;;;;;;;4998314;28;19984;-27
2022/06/07 09:55:30;;;;;;;;;;;;;;;;;;4997095;28;19922;-26
2022/06/07 09:57:56;;;;;;;;;;;;;;;;;;4997595;28;20310;-26
2022/06/07 10:00:22;;;;;;;;;;;;;;;;;;4997273;28;19925;-26
2022/06/07 10:02:48;;;;;;;;;;;;;;;;;;4997041;28;19921;-26
2022/06/07 10:05:14;;;;;;;;;;;;;;;;;;4997194;28;19920;-26
2022/06/07 10:07:40;;;;;;;;;;;;;;;;;;4997204;28;19913;-26
2022/06/07 10:10:08;;;;;;;;;;;;;;;;;;4997482;28;19961;-26
2022/06/07 10:12:34;;;;;;;;;;;;;;;;;;4997167;28;20280;-26
2022/06/07 10:15:00;;;;;;;;;;;;;;;;;;4996864;28;19928;-26
2022/06/07 10:17:26;;;;;;;;;;;;;;;;;;4996751;28;19921;-26
2022/06/07 10:19:52;;;;;;;;;;;;;;;;;;4996743;28;19918;-26
2022/06/07 10:22:18;;;;;;;;;;;;;;;;;;4996675;28;19910;-26
2022/06/07 10:24:44;;;;;;;;;;;;;;;;;;4997029;28;19917;-26
2022/06/07 10:27:11;;;;;;;;;;;;;;;;;;4996957;28;19914;-26
2022/06/07 10:29:38;;;;;;;;;;;;;;;;;;4996875;28;20065;-27
2022/06/07 10:32:04;;;;;;;;;;;;;;;;;;4996445;28;19925;-27
2022/06/07 10:34:30;;;;;;;;;;;;;;;;;;4997077;28;19910;-27
2022/06/07 10:36:56;;;;;;;;;;;;;;;;;;4995873;28;20004;-27
2022/06/07 10:39:22;;;;;;;;;;;;;;;;;;4996498;28;19913;-27
2022/06/07 10:41:48;;;;;;;;;;;;;;;;;;4996403;28;19941;-27
2022/06/07 10:44:14;;;;;;;;;;;;;;;;;;4996894;28;20008;-27
2022/06/07 10:46:40;;;;;;;;;;;;;;;;;;4995345;28;20387;-27
2022/06/07 10:49:06;;;;;;;;;;;;;;;;;;4996802;28;20265;-27
2022/06/07 10:54:17;;;;;;;;;;;;;;;;;;4996185;28;19936;-27
2022/06/07 10:56:43;;;;;;;;;;;;;;;;;;4996088;28;19914;-27
2022/06/07 10:59:09;;;;;;;;;;;;;;;;;;4996564;28;19972;-27
2022/06/07 11:01:37;;;;;;;;;;;;;;;;;;4996269;28;20033;-27
2022/06/07 11:04:04;;;;;;;;;;;;;;;;;;4995825;28;20365;-27
2022/06/07 11:09:21;;;;;;;;;;;;;;;;;;4996160;28;19976;-27
2022/06/07 11:11:47;;;;;;;;;;;;;;;;;;4996165;28;19936;-27
2022/06/07 11:14:13;;;;;;;;;;;;;;;;;;4996289;28;20361;-25
2022/06/07 11:16:39;;;;;;;;;;;;;;;;;;4995983;28;20020;-26
2022/06/07 11:19:05;;;;;;;;;;;;;;;;;;4995827;28;19921;-26
2022/06/07 11:21:31;;;;;;;;;;;;;;;;;;4996144;28;19910;-26
2022/06/07 11:23:57;;;;;;;;;;;;;;;;;;4995837;28;20387;-26
2022/06/07 11:26:24;;;;;;;;;;;;;;;;;;4996363;28;19910;-27
2022/06/07 11:28:50;;;;;;;;;;;;;;;;;;4995671;28;19914;-27
2022/06/07 11:31:16;;;;;;;;;;;;;;;;;;4996040;28;19968;-27
2022/06/07 11:33:43;;;;;;;;;;;;;;;;;;4995599;28;19925;-27
2022/06/07 11:36:09;;;;;;;;;;;;;;;;;;4995349;28;19913;-27
2022/06/07 11:38:35;;;;;;;;;;;;;;;;;;4995483;28;20015;-26
2022/06/07 11:42:01;;;;;;;;;;;;;;;;;;4995482;28;19920;-26
2022/06/07 11:43:58;;;;;;;;;;;;;;;;;;4982300;28;19918;-26
2022/06/07 11:46:24;;;;;;;;;;;;;;;;;;4995283;28;20001;-26
2022/06/07 11:48:50;;;;;;;;;;;;;;;;;;4996812;28;19914;-26
2022/06/07 11:51:17;;;;;;;;;;;;;;;;;;4999714;28;19992;-26
2022/06/07 11:53:43;;;;;;;;;;;;;;;;;;4999364;28;20415;-26
2022/06/07 11:56:11;;;;;;;;;;;;;;;;;;4998381;28;19914;-26
2022/06/07 11:58:37;;;;;;;;;;;;;;;;;;4999478;28;19972;-26
2022/06/07 12:01:03;;;;;;;;;;;;;;;;;;4999506;28;19910;-26
2022/06/07 12:03:29;;;;;;;;;;;;;;;;;;4999343;28;19953;-26
2022/06/07 12:05:55;;;;;;;;;;;;;;;;;;4999325;28;19910;-26
2022/06/07 12:08:21;;;;;;;;;;;;;;;;;;4999851;28;20086;-26
2022/06/07 12:10:47;;;;;;;;;;;;;;;;;;4999264;28;19909;-26
2022/06/07 12:13:13;;;;;;;;;;;;;;;;;;4999529;28;20230;-26
2022/06/07 12:15:39;;;;;;;;;;;;;;;;;;4999292;28;19914;-26
2022/06/07 12:18:06;;;;;;;;;;;;;;;;;;4999147;28;19920;-26
2022/06/07 12:20:32;;;;;;;;;;;;;;;;;;4998929;28;19925;-26
2022/06/07 12:22:58;;;;;;;;;;;;;;;;;;4998984;28;20013;-26
2022/06/07 12:25:24;;;;;;;;;;;;;;;;;;4999072;28;19921;-26
2022/06/07 12:27:51;;;;;;;;;;;;;;;;;;4998879;28;19914;-26
2022/06/07 12:30:17;;;;;;;;;;;;;;;;;;4998838;28;19920;-26
2022/06/07 12:32:43;;;;;;;;;;;;;;;;;;4999048;28;20349;-26
2022/06/07 12:35:09;;;;;;;;;;;;;;;;;;4999078;28;19920;-27
2022/06/07 12:37:35;;;;;;;;;;;;;;;;;;4998993;28;19913;-26
2022/06/07 12:40:02;;;;;;;;;;;;;;;;;;4998491;28;19910;-26
2022/06/07 12:42:28;;;;;;;;;;;;;;;;;;4999058;28;19913;-26
2022/06/07 12:44:54;;;;;;;;;;;;;;;;;;4998401;28;19910;-26
2022/06/07 12:47:20;;;;;;;;;;;;;;;;;;4998830;28;20363;-27
2022/06/07 12:49:46;;;;;;;;;;;;;;;;;;4998737;28;19917;-26
2022/06/07 12:52:13;;;;;;;;;;;;;;;;;;4998662;28;20312;-26
2022/06/07 12:54:39;;;;;;;;;;;;;;;;;;4998663;28;20256;-26
2022/06/07 12:57:05;;;;;;;;;;;;;;;;;;4998628;28;19918;-26
2022/06/07 12:59:31;;;;;;;;;;;;;;;;;;4996396;28;19964;-26
2022/06/07 13:01:57;;;;;;;;;;;;;;;;;;4998760;28;19917;-26
2022/06/07 13:04:23;;;;;;;;;;;;;;;;;;4997143;28;19942;-26
2022/06/07 13:06:49;;;;;;;;;;;;;;;;;;4998298;28;20358;-26
2022/06/07 13:09:15;;;;;;;;;;;;;;;;;;4998598;28;19914;-27
2022/06/07 13:11:41;;;;;;;;;;;;;;;;;;4997997;28;19983;-27
2022/06/07 13:14:07;;;;;;;;;;;;;;;;;;4998102;28;19965;-27
2022/06/07 13:16:34;;;;;;;;;;;;;;;;;;4998059;28;19914;-27
2022/06/07 13:19:00;;;;;;;;;;;;;;;;;;4998214;28;19914;-26
2022/06/07 13:21:26;;;;;;;;;;;;;;;;;;4998272;28;20032;-27
2022/06/07 13:23:52;;;;;;;;;;;;;;;;;;4998012;28;20277;-27
2022/06/07 13:26:18;;;;;;;;;;;;;;;;;;4997886;28;20010;-26
2022/06/07 13:28:44;;;;;;;;;;;;;;;;;;4997781;28;20278;-27
2022/06/07 13:31:10;;;;;;;;;;;;;;;;;;4998845;28;19924;-27
2022/06/07 13:33:36;;;;;;;;;;;;;;;;;;4998232;28;19913;-26
2022/06/07 13:36:03;;;;;;;;;;;;;;;;;;4998157;28;19918;-26
2022/06/07 13:38:29;;;;;;;;;;;;;;;;;;4997895;28;20304;-26
2022/06/07 13:40:55;;;;;;;;;;;;;;;;;;4997609;28;19922;-26
2022/06/07 13:43:22;;;;;;;;;;;;;;;;;;4997546;28;19944;-27
2022/06/07 13:45:49;;;;;;;;;;;;;;;;;;4997565;28;19910;-27
2022/06/07 13:48:16;;;;;;;;;;;;;;;;;;4997382;28;19913;-27
2022/06/07 13:53:27;;;;;;;;;;;;;;;;;;4997484;28;19924;-27
2022/06/07 13:55:53;;;;;;;;;;;;;;;;;;4997843;28;20322;-26
2022/06/07 13:58:19;;;;;;;;;;;;;;;;;;4997217;28;19949;-27
2022/06/07 14:00:45;;;;;;;;;;;;;;;;;;4997583;28;19909;-27
2022/06/07 14:03:11;;;;;;;;;;;;;;;;;;4997117;28;19922;-27
2022/06/07 14:05:37;;;;;;;;;;;;;;;;;;4997459;28;19914;-27
2022/06/07 14:08:03;;;;;;;;;;;;;;;;;;4997417;28;19914;-27
2022/06/07 14:10:29;;;;;;;;;;;;;;;;;;4996184;28;19914;-25
2022/06/07 14:12:56;;;;;;;;;;;;;;;;;;4995996;28;19913;-26
2022/06/07 14:15:21;;;;;;;;;;;;;;;;;;4996911;28;19920;-27
2022/06/07 14:17:48;;;;;;;;;;;;;;;;;;4996969;28;20004;-26
2022/06/07 14:20:14;;;;;;;;;;;;;;;;;;4996870;28;19921;-26
2022/06/07 14:22:40;;;;;;;;;;;;;;;;;;4996806;28;19920;-26
2022/06/07 14:25:06;;;;;;;;;;;;;;;;;;4996715;28;19945;-26
2022/06/07 14:27:32;;;;;;;;;;;;;;;;;;4996764;28;19917;-26
2022/06/07 14:29:58;;;;;;;;;;;;;;;;;;4996884;28;19914;-26
2022/06/07 14:32:24;;;;;;;;;;;;;;;;;;4996571;28;19945;-26
2022/06/07 14:34:50;;;;;;;;;;;;;;;;;;4996479;28;19936;-26
2022/06/07 14:37:16;;;;;;;;;;;;;;;;;;4996816;28;19968;-26
2022/06/07 14:39:43;;;;;;;;;;;;;;;;;;4996784;28;19918;-27
2022/06/07 14:42:09;;;;;;;;;;;;;;;;;;4996674;28;19925;-27
2022/06/07 14:44:35;;;;;;;;;;;;;;;;;;4996491;28;20253;-27
2022/06/07 14:47:01;;;;;;;;;;;;;;;;;;4996746;28;19914;-27
2022/06/07 14:49:27;;;;;;;;;;;;;;;;;;4996436;28;19914;-27
2022/06/07 14:51:53;;;;;;;;;;;;;;;;;;4996528;28;19984;-27
2022/06/07 14:54:19;;;;;;;;;;;;;;;;;;4996326;28;19913;-27
2022/06/07 14:56:45;;;;;;;;;;;;;;;;;;4996465;28;20000;-27
2022/06/07 14:59:11;;;;;;;;;;;;;;;;;;4996388;28;19956;-26
2022/06/07 15:01:37;;;;;;;;;;;;;;;;;;4996167;28;19940;-26
2022/06/07 15:04:03;;;;;;;;;;;;;;;;;;4995806;28;19922;-26
2022/06/07 15:06:29;;;;;;;;;;;;;;;;;;4996137;28;19910;-26
2022/06/07 15:08:55;;;;;;;;;;;;;;;;;;4995988;28;20056;-26
2022/06/07 15:11:21;;;;;;;;;;;;;;;;;;4996026;28;19910;-26
2022/06/07 15:13:47;;;;;;;;;;;;;;;;;;4996102;28;19920;-26
2022/06/07 15:16:13;;;;;;;;;;;;;;;;;;4996470;28;20353;-26
2022/06/07 15:18:39;;;;;;;;;;;;;;;;;;4995966;28;19910;-26
2022/06/07 15:21:05;;;;;;;;;;;;;;;;;;4996524;28;19914;-26
2022/06/07 15:23:31;;;;;;;;;;;;;;;;;;4996083;28;19910;-26
2022/06/07 15:25:57;;;;;;;;;;;;;;;;;;4995819;28;19956;-26
2022/06/07 15:28:23;;;;;;;;;;;;;;;;;;4996116;28;19925;-26
2022/06/07 15:30:49;;;;;;;;;;;;;;;;;;4996346;28;20268;-26
2022/06/07 15:33:15;;;;;;;;;;;;;;;;;;4995918;28;19914;-26
2022/06/07 15:35:41;;;;;;;;;;;;;;;;;;4995875;28;19913;-26
2022/06/07 15:38:07;;;;;;;;;;;;;;;;;;4996250;28;19914;-26
2022/06/07 15:40:33;;;;;;;;;;;;;;;;;;4995906;28;19913;-26
2022/06/07 15:42:59;;;;;;;;;;;;;;;;;;4995531;28;20028;-26
2022/06/07 15:45:25;;;;;;;;;;;;;;;;;;4995574;28;19921;-26
2022/06/07 15:47:51;;;;;;;;;;;;;;;;;;4995553;28;19913;-26
2022/06/07 15:50:18;;;;;;;;;;;;;;;;;;4994570;28;20257;-26
2022/06/07 15:52:44;;;;;;;;;;;;;;;;;;4995475;28;19957;-26
2022/06/07 15:55:10;;;;;;;;;;;;;;;;;;4995701;28;19910;-26
2022/06/07 16:00:20;;;;;;;;;;;;;;;;;;4995944;28;20373;-26
2022/06/07 16:02:46;;;;;;;;;;;;;;;;;;4995354;28;19944;-26
2022/06/07 16:05:14;;;;;;;;;;;;;;;;;;4995523;28;20361;-26
2022/06/07 16:07:40;;;;;;;;;;;;;;;;;;4995699;28;19924;-26
2022/06/07 16:10:06;;;;;;;;;;;;;;;;;;4995443;28;20256;-26
2022/06/07 16:12:32;;;;;;;;;;;;;;;;;;4995361;28;19918;-26
2022/06/07 16:14:58;;;;;;;;;;;;;;;;;;4995359;28;19921;-26
2022/06/07 16:17:24;;;;;;;;;;;;;;;;;;4995288;28;19923;-26
2022/06/07 16:19:50;;;;;;;;;;;;;;;;;;4995226;28;19964;-26
2022/06/07 16:22:16;;;;;;;;;;;;;;;;;;4995244;28;19913;-26
2022/06/07 16:24:42;;;;;;;;;;;;;;;;;;4995316;28;19918;-26
2022/06/07 16:33:18;;;;;;;;;;;;;;;;;;4995487;28;20269;-26
2022/06/07 16:35:23;;;;;;;;;;;;;;;;;;4997025;28;19979;-26
2022/06/07 16:37:49;;;;;;;;;;;;;;;;;;4998898;28;19925;-26
2022/06/07 16:40:15;;;;;;;;;;;;;;;;;;4999022;28;19909;-26
2022/06/07 16:42:41;;;;;;;;;;;;;;;;;;4998766;28;20016;-26
2022/06/07 16:45:07;;;;;;;;;;;;;;;;;;4998693;28;19914;-26
2022/06/07 16:47:33;;;;;;;;;;;;;;;;;;4999006;28;19910;-26
2022/06/07 16:49:59;;;;;;;;;;;;;;;;;;4998969;28;19921;-26
2022/06/07 16:52:25;;;;;;;;;;;;;;;;;;4998590;28;19969;-26
2022/06/07 16:54:51;;;;;;;;;;;;;;;;;;4998754;28;19917;-26
2022/06/07 16:57:19;;;;;;;;;;;;;;;;;;4998422;28;20273;-26
2022/06/07 16:59:45;;;;;;;;;;;;;;;;;;4998749;28;20307;-26
2022/06/07 17:02:12;;;;;;;;;;;;;;;;;;4998120;28;19914;-26
2022/06/07 17:04:38;;;;;;;;;;;;;;;;;;4998953;28;19925;-26
2022/06/07 17:07:04;;;;;;;;;;;;;;;;;;4998548;28;20072;-26
2022/06/07 17:09:30;;;;;;;;;;;;;;;;;;4998226;28;20040;-26
2022/06/07 17:11:57;;;;;;;;;;;;;;;;;;4998852;28;19913;-26